Time;durP1;ratioP1;P1;durP2;ratioP2;P2;SDS_P1;SDS_P2;PMS_P1;PMS_P2;Temp;Humidity;BMP_temperature;BMP_pressure;BME280_temperature;BME280_humidity;BME280_pressure;Samples;Min_cycle;Max_cycle;Signal;HPM_P1;HPM_P2
2022/09/03 00:02:12;;;;;;;2.20;1.10;;;16.40;82.50;;;;;;4873604;29;20113;-69
2022/09/03 00:04:46;;;;;;;2.90;1.20;;;16.40;82.70;;;;;;4850202;29;20065;-68
2022/09/03 00:07:46;;;;;;;1.05;0.82;;;16.40;82.80;;;;;;4840863;29;20129;-67
2022/09/03 00:10:21;;;;;;;2.47;1.02;;;16.40;83.40;;;;;;4845497;29;20403;-68
2022/09/03 00:12:49;;;;;;;2.20;1.38;;;16.30;83.50;;;;;;4861188;29;20587;-68
2022/09/03 00:15:21;;;;;;;3.40;1.00;;;16.20;83.70;;;;;;4854200;29;20077;-68
2022/09/03 00:18:08;;;;;;;2.50;1.08;;;16.20;84.30;;;;;;4857143;29;20467;-68
2022/09/03 00:20:43;;;;;;;1.40;1.10;;;16.20;84.80;;;;;;4854188;29;20491;-68
2022/09/03 00:23:18;;;;;;;1.17;1.08;;;16.10;85.10;;;;;;4858488;29;20160;-68
2022/09/03 00:25:52;;;;;;;2.28;0.88;;;16.10;85.50;;;;;;4846761;29;20065;-68
2022/09/03 00:28:24;;;;;;;3.00;1.30;;;16.10;85.50;;;;;;4843524;29;20069;-67
2022/09/03 00:30:58;;;;;;;0.98;0.90;;;16.00;85.90;;;;;;4849267;29;20058;-68
2022/09/03 00:33:28;;;;;;;3.20;1.00;;;16.00;86.20;;;;;;4844651;29;20053;-68
2022/09/03 00:36:16;;;;;;;2.40;1.08;;;16.00;86.60;;;;;;4846096;29;20069;-68
2022/09/03 00:38:42;;;;;;;1.70;1.15;;;16.00;86.80;;;;;;4850079;29;20084;-68
2022/09/03 00:41:41;;;;;;;1.38;1.00;;;16.00;87.10;;;;;;4828878;29;20062;-68
2022/09/03 00:44:34;;;;;;;2.60;1.10;;;15.90;87.50;;;;;;4824463;29;20081;-66
2022/09/03 00:47:12;;;;;;;1.98;1.38;;;15.90;88.20;;;;;;4859152;29;20057;-68
2022/09/03 00:49:43;;;;;;;2.80;1.00;;;15.90;90.10;;;;;;4861868;29;20515;-67
2022/09/03 00:52:48;;;;;;;3.03;1.27;;;15.80;89.40;;;;;;4847104;29;20054;-67
2022/09/03 00:55:44;;;;;;;3.65;1.00;;;15.80;90.00;;;;;;4851338;29;20056;-69
2022/09/03 00:58:38;;;;;;;1.17;0.88;;;15.70;90.00;;;;;;4859339;29;20508;-66
2022/09/03 01:01:29;;;;;;;0.90;0.90;;;15.70;90.20;;;;;;4842624;29;20501;-67
2022/09/03 01:04:23;;;;;;;2.95;1.40;;;15.60;90.50;;;;;;4850947;29;20069;-67
2022/09/03 01:07:20;;;;;;;1.48;0.88;;;15.60;90.90;;;;;;4855512;29;20066;-67
2022/09/03 01:09:55;;;;;;;1.10;0.85;;;15.60;91.80;;;;;;4842479;29;20411;-68
2022/09/03 01:12:37;;;;;;;1.63;1.00;;;15.60;91.30;;;;;;4815059;29;20050;-69
2022/09/03 01:15:25;;;;;;;1.45;0.88;;;15.60;92.20;;;;;;4833546;29;20114;-67
2022/09/03 01:18:16;;;;;;;1.08;0.90;;;15.60;91.50;;;;;;4843293;29;20144;-66
2022/09/03 01:20:50;;;;;;;1.05;0.90;;;15.60;92.20;;;;;;4843211;29;20062;-67
2022/09/03 01:27:42;;;;;;;3.17;1.00;;;15.50;92.20;;;;;;4783377;30;20096;-67
2022/09/03 01:30:16;;;;;;;2.70;1.00;;;15.50;91.80;;;;;;4786087;29;20149;-67
2022/09/03 01:32:47;;;;;;;4.53;1.20;;;15.50;92.30;;;;;;4841486;29;20057;-67
2022/09/03 01:35:38;;;;;;;2.95;0.88;;;15.50;92.50;;;;;;4847105;29;20057;-66
2022/09/03 01:46:25;;;;;;;1.98;0.70;;;15.60;92.60;;;;;;4845208;29;20104;-66
2022/09/03 01:49:05;;;;;;;3.53;1.17;;;15.50;92.70;;;;;;4848720;29;20068;-66
2022/09/03 01:51:31;;;;;;;3.53;0.90;;;15.60;93.00;;;;;;4853117;29;20065;-66
2022/09/03 01:54:25;;;;;;;1.70;1.00;;;15.50;92.80;;;;;;4860645;29;20058;-67
2022/09/03 01:57:06;;;;;;;2.13;1.00;;;15.60;93.00;;;;;;4859545;29;20053;-67
2022/09/03 02:00:07;;;;;;;6.27;1.37;;;15.60;92.90;;;;;;4857457;29;20053;-66
2022/09/03 02:02:34;;;;;;;2.08;0.85;;;15.60;92.90;;;;;;4797629;29;20177;-67
2022/09/03 02:05:10;;;;;;;0.80;0.80;;;15.90;93.00;;;;;;4857634;29;20056;-66
2022/09/03 02:07:41;;;;;;;2.58;1.17;;;15.60;93.00;;;;;;4855608;29;20133;-67
2022/09/03 02:10:11;;;;;;;3.10;1.25;;;15.60;93.30;;;;;;4860964;29;20490;-67
2022/09/03 02:12:39;;;;;;;3.92;1.10;;;15.60;93.40;;;;;;4842118;29;20053;-67
2022/09/03 02:15:10;;;;;;;1.05;0.93;;;15.60;93.60;;;;;;4842517;29;20451;-66
2022/09/03 02:17:37;;;;;;;1.40;0.93;;;15.60;93.60;;;;;;4852904;29;20076;-67
2022/09/03 02:20:12;;;;;;;1.25;0.98;;;15.60;93.60;;;;;;4859780;29;20139;-66
2022/09/03 02:22:39;;;;;;;2.45;1.00;;;15.60;93.60;;;;;;4842143;29;20080;-67
2022/09/03 02:25:06;;;;;;;1.48;0.90;;;15.60;93.70;;;;;;4843664;29;20057;-67
2022/09/03 02:27:31;;;;;;;2.22;1.08;;;15.60;93.50;;;;;;4842601;29;20061;-67
2022/09/03 02:29:57;;;;;;;1.52;0.80;;;15.70;93.70;;;;;;4829676;29;20049;-67
2022/09/03 02:32:23;;;;;;;2.67;1.08;;;15.80;93.60;;;;;;4852766;29;20092;-67
2022/09/03 02:34:49;;;;;;;5.10;1.20;;;15.80;93.30;;;;;;4827984;29;20053;-67
2022/09/03 02:37:17;;;;;;;2.13;0.90;;;15.80;93.20;;;;;;4845805;29;20077;-66
2022/09/03 02:39:43;;;;;;;2.63;1.00;;;15.80;93.10;;;;;;4842067;29;20050;-67
2022/09/03 02:42:11;;;;;;;3.53;1.00;;;15.80;93.10;;;;;;4826381;29;20144;-66
2022/09/03 02:44:58;;;;;;;1.00;0.90;;;15.80;92.90;;;;;;4842104;29;20464;-67
2022/09/03 02:47:30;;;;;;;1.67;0.80;;;15.80;92.80;;;;;;4842127;29;20161;-67
2022/09/03 02:49:56;;;;;;;;;;;15.80;92.80;;;;;;4847749;29;20045;-66
2022/09/03 02:52:22;;;;;;;0.88;0.80;;;15.80;92.80;;;;;;4858770;29;19924;-67
2022/09/03 02:54:47;;;;;;;2.33;1.10;;;15.90;92.90;;;;;;4842977;29;20148;-67
2022/09/03 02:57:15;;;;;;;2.17;0.80;;;15.90;92.60;;;;;;4828230;29;20134;-68
2022/09/03 02:59:44;;;;;;;1.50;0.95;;;15.90;92.80;;;;;;4829317;29;20482;-67
2022/09/03 03:02:12;;;;;;;0.75;0.75;;;15.90;92.80;;;;;;4857667;29;20064;-67
2022/09/03 03:04:38;;;;;;;1.75;1.02;;;15.90;92.80;;;;;;4856425;29;20100;-67
2022/09/03 03:07:05;;;;;;;1.60;0.80;;;15.90;93.00;;;;;;4851250;29;20054;-67
2022/09/03 03:09:31;;;;;;;1.92;0.98;;;15.90;93.10;;;;;;4828624;29;20058;-67
2022/09/03 03:11:56;;;;;;;3.53;0.82;;;15.90;93.10;;;;;;4827559;29;20053;-67
2022/09/03 03:14:22;;;;;;;1.17;1.00;;;15.90;92.80;;;;;;4829256;29;20057;-66
2022/09/03 03:16:49;;;;;;;2.25;0.90;;;15.90;92.80;;;;;;4852866;29;20053;-68
2022/09/03 03:19:15;;;;;;;3.03;1.02;;;15.90;92.80;;;;;;4861471;29;20097;-66
2022/09/03 03:21:41;;;;;;;1.92;0.90;;;15.90;92.90;;;;;;4862400;29;20061;-67
2022/09/03 03:24:07;;;;;;;0.90;0.90;;;15.90;93.00;;;;;;4862622;29;20054;-68
2022/09/03 03:26:33;;;;;;;2.75;0.98;;;15.90;93.00;;;;;;4861793;29;20099;-67
2022/09/03 03:29:03;;;;;;;1.55;0.88;;;15.90;92.80;;;;;;4842988;29;20514;-67
2022/09/03 03:31:30;;;;;;;1.05;0.80;;;15.90;92.60;;;;;;4862624;29;20597;-67
2022/09/03 03:33:57;;;;;;;2.05;1.00;;;15.90;92.70;;;;;;4857366;29;20053;-67
2022/09/03 03:36:26;;;;;;;3.03;1.00;;;15.90;92.90;;;;;;4839329;29;20391;-67
2022/09/03 03:38:57;;;;;;;2.05;1.10;;;15.80;92.90;;;;;;4845185;29;20062;-67
2022/09/03 03:41:24;;;;;;;0.85;0.80;;;15.80;93.30;;;;;;4845747;29;20054;-66
2022/09/03 03:43:58;;;;;;;3.88;1.20;;;15.80;93.40;;;;;;4845128;29;20061;-68
2022/09/03 03:46:27;;;;;;;1.00;0.90;;;15.80;93.50;;;;;;4857777;29;20046;-68
2022/09/03 03:48:53;;;;;;;0.85;0.60;;;15.70;93.60;;;;;;4852088;29;20542;-68
2022/09/03 03:51:19;;;;;;;2.58;1.00;;;15.70;93.70;;;;;;4844024;29;20050;-67
2022/09/03 03:53:45;;;;;;;3.10;1.15;;;15.60;94.00;;;;;;4861946;29;20057;-68
2022/09/03 03:56:13;;;;;;;2.45;1.00;;;15.60;94.20;;;;;;4843312;29;20142;-67
2022/09/03 03:58:43;;;;;;;2.50;1.10;;;15.60;94.50;;;;;;4862939;29;20421;-67
2022/09/03 04:01:18;;;;;;;1.08;0.98;;;15.50;94.90;;;;;;4862197;29;20068;-67
2022/09/03 04:03:44;;;;;;;2.55;1.02;;;15.50;95.00;;;;;;4851049;29;20073;-68
2022/09/03 04:06:12;;;;;;;1.90;1.00;;;15.40;95.30;;;;;;4855281;29;20049;-67
2022/09/03 04:08:40;;;;;;;3.83;1.13;;;15.40;95.60;;;;;;4857769;29;21041;-67
2022/09/03 04:11:09;;;;;;;1.00;0.90;;;15.40;95.80;;;;;;4861001;29;20069;-67
2022/09/03 04:13:38;;;;;;;2.33;1.10;;;15.40;96.00;;;;;;4850416;29;20072;-67
2022/09/03 04:16:06;;;;;;;2.92;1.20;;;15.30;96.30;;;;;;4858965;29;20057;-68
2022/09/03 04:18:32;;;;;;;3.90;1.08;;;15.30;96.50;;;;;;4860629;29;20136;-67
2022/09/03 04:21:11;;;;;;;1.88;1.05;;;15.20;96.70;;;;;;4860521;29;20077;-67
2022/09/03 04:23:40;;;;;;;1.38;1.13;;;15.20;97.10;;;;;;4853303;29;20057;-68
2022/09/03 04:26:07;;;;;;;1.27;1.17;;;15.10;97.30;;;;;;4827234;29;20097;-67
2022/09/03 04:28:36;;;;;;;1.80;1.00;;;15.10;97.60;;;;;;4844379;29;20046;-67
2022/09/03 04:31:07;;;;;;;2.38;1.40;;;15.00;97.90;;;;;;4844481;29;20057;-67
2022/09/03 04:33:34;;;;;;;2.88;1.13;;;15.00;98.70;;;;;;4843654;29;20065;-68
2022/09/03 04:36:09;;;;;;;2.38;1.10;;;15.00;98.90;;;;;;4845002;29;20064;-68
2022/09/03 04:38:37;;;;;;;1.77;1.42;;;14.90;99.70;;;;;;4848092;29;20452;-67
2022/09/03 04:41:05;;;;;;;3.08;1.15;;;14.90;99.90;;;;;;4849704;29;20089;-67
2022/09/03 04:43:31;;;;;;;2.30;1.10;;;14.80;99.90;;;;;;4827783;29;20073;-67
2022/09/03 04:46:02;;;;;;;1.67;1.10;;;14.80;99.90;;;;;;4842379;29;20083;-68
2022/09/03 04:48:37;;;;;;;3.03;1.30;;;14.80;99.90;;;;;;4830705;29;20488;-68
2022/09/03 04:51:22;;;;;;;2.53;1.38;;;14.70;99.90;;;;;;4817849;29;20053;-67
2022/09/03 04:53:53;;;;;;;2.15;1.20;;;14.70;99.90;;;;;;4842801;29;20068;-67
2022/09/03 04:56:22;;;;;;;2.17;1.38;;;14.70;99.90;;;;;;4848390;29;20467;-67
2022/09/03 05:02:08;;;;;;;2.28;1.30;;;14.60;99.90;;;;;;4854760;29;20101;-67
2022/09/03 05:04:34;;;;;;;4.10;1.55;;;14.60;99.90;;;;;;4856528;29;20057;-68
2022/09/03 05:07:00;;;;;;;2.30;1.35;;;14.50;99.90;;;;;;4851378;29;20136;-67
2022/09/03 05:09:25;;;;;;;2.92;1.20;;;14.50;99.90;;;;;;4855227;29;20053;-67
2022/09/03 05:11:51;;;;;;;3.40;1.30;;;14.60;99.90;;;;;;4841100;29;20136;-68
2022/09/03 05:14:16;;;;;;;2.15;1.27;;;14.50;99.90;;;;;;4850741;29;20158;-67
2022/09/03 05:16:42;;;;;;;1.90;1.40;;;14.60;99.90;;;;;;4861457;29;20068;-67
2022/09/03 05:19:08;;;;;;;1.55;1.27;;;14.60;99.90;;;;;;4857653;29;20061;-67
2022/09/03 05:21:34;;;;;;;1.98;1.55;;;14.60;99.90;;;;;;4859082;29;20053;-67
2022/09/03 05:24:01;;;;;;;2.15;1.58;;;14.60;99.90;;;;;;4854761;29;20274;-68
2022/09/03 05:26:30;;;;;;;2.83;1.40;;;14.60;99.90;;;;;;4854060;29;20061;-68
2022/09/03 05:28:59;;;;;;;6.10;1.25;;;14.60;99.90;;;;;;4858341;29;20045;-68
2022/09/03 05:31:26;;;;;;;2.50;1.40;;;14.70;99.90;;;;;;4843848;29;20053;-67
2022/09/03 05:33:57;;;;;;;3.03;1.30;;;14.70;99.90;;;;;;4859871;29;20057;-68
2022/09/03 05:36:25;;;;;;;2.13;1.30;;;14.70;99.90;;;;;;4857581;29;20065;-67
2022/09/03 05:38:55;;;;;;;4.50;1.50;;;14.80;99.90;;;;;;4858680;29;20061;-67
2022/09/03 05:41:22;;;;;;;2.88;1.42;;;14.80;99.90;;;;;;4848913;29;20057;-68
2022/09/03 05:43:52;;;;;;;1.95;1.42;;;14.80;99.90;;;;;;4858238;29;20065;-67
2022/09/03 05:46:18;;;;;;;4.78;1.60;;;14.80;99.90;;;;;;4859985;29;20403;-67
2022/09/03 05:48:44;;;;;;;1.88;1.30;;;14.80;99.90;;;;;;4843607;29;20084;-66
2022/09/03 05:51:15;;;;;;;2.88;1.70;;;14.80;99.90;;;;;;4859953;29;20402;-67
2022/09/03 05:53:43;;;;;;;4.53;1.60;;;14.80;99.90;;;;;;4851541;29;20061;-67
2022/09/03 05:56:16;;;;;;;3.20;1.25;;;14.80;99.90;;;;;;4854846;29;20093;-67
2022/09/03 05:59:32;;;;;;;1.95;1.40;;;14.80;99.90;;;;;;4859378;29;20057;-67
2022/09/03 06:01:58;;;;;;;2.78;1.55;;;14.90;99.90;;;;;;4859992;29;20153;-67
2022/09/03 06:04:23;;;;;;;1.90;1.58;;;14.90;99.90;;;;;;4843981;29;20057;-67
2022/09/03 06:06:49;;;;;;;2.88;1.48;;;14.90;99.90;;;;;;4844017;29;20089;-67
2022/09/03 06:09:17;;;;;;;2.40;1.60;;;15.00;99.90;;;;;;4844280;29;20057;-68
2022/09/03 06:11:44;;;;;;;1.85;1.73;;;15.10;99.90;;;;;;4855724;29;20724;-67
2022/09/03 06:14:15;;;;;;;1.70;1.60;;;15.10;99.90;;;;;;4850715;29;20117;-68
2022/09/03 06:16:43;;;;;;;3.95;1.77;;;15.20;99.90;;;;;;4859462;29;20124;-68
2022/09/03 06:24:01;;;;;;;2.67;1.50;;;15.40;99.90;;;;;;4858977;29;20129;-69
2022/09/03 06:26:29;;;;;;;1.88;1.60;;;15.30;99.90;;;;;;4822899;29;20098;-68
2022/09/03 06:29:49;;;;;;;3.63;2.05;;;15.30;99.90;;;;;;4859409;29;20054;-68
2022/09/03 06:32:57;;;;;;;2.92;1.80;;;15.40;99.90;;;;;;4861570;29;20124;-68
2022/09/03 06:35:25;;;;;;;2.85;1.50;;;15.50;99.90;;;;;;4858072;29;20053;-68
2022/09/03 06:37:51;;;;;;;2.05;1.85;;;15.60;99.90;;;;;;4825432;29;20041;-69
2022/09/03 06:40:32;;;;;;;6.25;1.70;;;15.70;99.90;;;;;;4825782;29;20053;-68
2022/09/03 06:43:07;;;;;;;3.83;1.60;;;16.00;99.90;;;;;;4816080;29;20388;-68
2022/09/03 06:45:55;;;;;;;4.82;1.88;;;15.90;99.90;;;;;;4820739;29;20049;-67
2022/09/03 06:48:23;;;;;;;3.72;1.80;;;16.00;99.90;;;;;;4829582;29;20097;-69
2022/09/03 06:51:14;;;;;;;2.03;1.42;;;16.10;99.90;;;;;;4822432;29;20336;-69
2022/09/03 06:53:51;;;;;;;2.50;1.33;;;16.20;99.90;;;;;;4857151;29;20054;-67
2022/09/03 06:56:25;;;;;;;5.43;1.70;;;16.30;99.90;;;;;;4833056;29;20129;-69
2022/09/03 06:59:11;;;;;;;2.67;1.70;;;16.30;99.90;;;;;;4847525;29;20079;-67
2022/09/03 07:01:42;;;;;;;1.95;1.42;;;16.30;99.90;;;;;;4825630;29;20050;-70
2022/09/03 07:04:09;;;;;;;3.20;1.50;;;16.70;99.90;;;;;;4844614;29;20065;-67
2022/09/03 07:06:37;;;;;;;2.53;1.50;;;16.40;99.90;;;;;;4828367;29;20134;-66
2022/09/03 07:09:04;;;;;;;1.90;1.52;;;16.50;99.90;;;;;;4828874;29;20105;-69
2022/09/03 07:11:32;;;;;;;2.90;1.63;;;16.60;99.90;;;;;;4845049;29;20061;-67
2022/09/03 07:13:59;;;;;;;1.98;1.67;;;16.60;99.90;;;;;;4845303;29;20388;-69
2022/09/03 07:16:31;;;;;;;3.15;1.40;;;16.70;99.90;;;;;;4844778;29;20496;-67
2022/09/03 07:18:56;;;;;;;;;;;16.80;99.90;;;;;;4829861;29;20058;-70
2022/09/03 07:21:24;;;;;;;2.30;1.50;;;16.90;99.90;;;;;;4828363;29;19936;-67
2022/09/03 07:23:51;;;;;;;5.68;1.65;;;17.00;99.90;;;;;;4845364;29;20160;-68
2022/09/03 07:26:25;;;;;;;4.57;1.40;;;17.10;99.90;;;;;;4829356;29;20061;-68
2022/09/03 07:28:53;;;;;;;4.10;1.65;;;17.20;99.90;;;;;;4860923;29;20069;-67
2022/09/03 07:31:40;;;;;;;3.45;1.40;;;17.40;99.90;;;;;;4854292;29;20061;-66
2022/09/03 07:34:17;;;;;;;2.08;1.50;;;17.50;98.20;;;;;;4855557;29;20117;-68
2022/09/03 07:36:45;;;;;;;2.75;1.55;;;17.60;98.50;;;;;;4846616;29;20057;-68
2022/09/03 07:39:13;;;;;;;4.88;1.55;;;17.70;98.60;;;;;;4837432;29;20057;-67
2022/09/03 07:41:42;;;;;;;1.75;1.20;;;17.80;98.00;;;;;;4850540;29;20077;-67
2022/09/03 07:44:08;;;;;;;2.80;1.33;;;17.90;97.80;;;;;;4852689;29;20050;-66
2022/09/03 07:46:35;;;;;;;4.82;1.20;;;18.00;96.60;;;;;;4854258;29;20062;-66
2022/09/03 07:49:02;;;;;;;2.00;1.20;;;18.10;95.90;;;;;;4863303;29;20067;-65
2022/09/03 07:51:31;;;;;;;1.90;1.30;;;18.20;95.60;;;;;;4859619;29;20168;-66
2022/09/03 07:54:01;;;;;;;4.25;1.52;;;18.30;94.40;;;;;;4845622;29;20470;-66
2022/09/03 07:56:29;;;;;;;3.60;1.73;;;18.30;94.20;;;;;;4854391;29;20440;-67
2022/09/03 07:58:56;;;;;;;2.22;1.23;;;18.40;93.40;;;;;;4853127;29;20094;-68
2022/09/03 08:01:23;;;;;;;3.00;1.58;;;18.50;93.40;;;;;;4841978;29;20402;-66
2022/09/03 08:03:51;;;;;;;1.35;1.25;;;18.60;93.20;;;;;;4858318;29;20049;-68
2022/09/03 08:06:20;;;;;;;1.98;1.40;;;18.70;92.00;;;;;;4856160;29;20160;-66
2022/09/03 08:09:00;;;;;;;;;;;;;;;;;;;;;
2022/09/03 08:11:27;;;;;;;3.70;1.40;;;18.80;91.20;;;;;;4850633;29;20111;-67
2022/09/03 08:14:00;;;;;;;3.63;1.20;;;18.90;91.00;;;;;;4827794;29;20484;-67
2022/09/03 08:16:30;;;;;;;1.58;1.30;;;19.00;90.10;;;;;;4843919;29;20054;-67
2022/09/03 08:18:56;;;;;;;3.83;1.30;;;19.00;90.00;;;;;;4812653;29;20058;-67
2022/09/03 08:21:23;;;;;;;4.43;1.58;;;19.10;89.30;;;;;;4843419;29;20148;-67
2022/09/03 08:23:52;;;;;;;2.90;1.20;;;19.20;88.70;;;;;;4844080;29;20053;-67
2022/09/03 08:26:20;;;;;;;5.65;1.38;;;19.30;87.90;;;;;;4811956;29;20054;-67
2022/09/03 08:28:46;;;;;;;4.40;1.55;;;19.40;86.90;;;;;;4844418;29;20054;-67
2022/09/03 08:31:20;;;;;;;1.85;1.17;;;19.50;85.30;;;;;;4827499;29;20054;-68
2022/09/03 08:33:52;;;;;;;1.75;1.50;;;19.50;84.40;;;;;;4827645;29;20058;-67
2022/09/03 08:36:29;;;;;;;2.60;1.23;;;19.60;83.80;;;;;;4811557;29;20050;-67
2022/09/03 08:39:02;;;;;;;3.80;1.48;;;19.70;82.10;;;;;;4812477;29;20053;-68
2022/09/03 08:41:46;;;;;;;1.98;1.20;;;19.80;82.60;;;;;;4843705;29;20121;-67
2022/09/03 08:44:28;;;;;;;2.47;1.30;;;19.90;82.10;;;;;;4843928;29;20054;-67
2022/09/03 08:47:26;;;;;;;4.40;1.60;;;20.10;82.10;;;;;;4843874;29;20057;-66
2022/09/03 08:50:13;;;;;;;3.13;1.38;;;20.20;80.60;;;;;;4828246;29;20368;-69
2022/09/03 08:53:06;;;;;;;4.40;1.73;;;20.40;80.00;;;;;;4842956;29;20110;-67
2022/09/03 08:55:43;;;;;;;4.45;1.55;;;20.50;80.30;;;;;;4827273;29;20176;-68
2022/09/03 08:58:13;;;;;;;2.63;1.17;;;20.70;78.90;;;;;;4843563;29;20385;-67
2022/09/03 09:01:01;;;;;;;1.33;1.10;;;20.70;78.60;;;;;;4843926;29;20058;-68
2022/09/03 09:03:45;;;;;;;3.30;1.30;;;20.80;77.40;;;;;;4843436;29;20089;-68
2022/09/03 09:06:16;;;;;;;3.00;1.30;;;20.90;77.60;;;;;;4843256;29;20062;-68
2022/09/03 09:09:07;;;;;;;2.53;1.00;;;21.00;75.10;;;;;;4826340;29;20066;-68
2022/09/03 09:11:58;;;;;;;1.52;1.10;;;21.00;74.90;;;;;;4805713;29;20058;-69
2022/09/03 09:14:30;;;;;;;3.30;1.30;;;21.10;73.50;;;;;;4827117;29;20093;-68
2022/09/03 09:17:21;;;;;;;2.28;1.33;;;21.20;72.80;;;;;;4843338;29;20062;-68
2022/09/03 09:19:56;;;;;;;2.70;1.17;;;21.20;73.00;;;;;;4807906;29;20066;-68
2022/09/03 09:22:29;;;;;;;5.68;1.35;;;21.30;72.50;;;;;;4842763;29;20057;-68
2022/09/03 09:25:00;;;;;;;4.20;1.45;;;21.30;71.30;;;;;;4827043;29;20068;-67
2022/09/03 09:27:28;;;;;;;4.68;1.55;;;21.50;71.80;;;;;;4826834;29;20053;-67
2022/09/03 09:30:00;;;;;;;5.13;1.33;;;21.60;71.50;;;;;;4827095;29;20381;-67
2022/09/03 09:32:26;;;;;;;2.08;1.30;;;21.60;70.40;;;;;;4842657;29;20427;-68
2022/09/03 09:34:53;;;;;;;1.52;1.30;;;21.60;70.40;;;;;;4843015;29;20081;-67
2022/09/03 09:37:19;;;;;;;2.20;1.08;;;21.70;70.30;;;;;;4842401;29;20053;-68
2022/09/03 09:39:56;;;;;;;3.90;1.25;;;21.80;70.60;;;;;;4842906;29;20502;-68
2022/09/03 09:42:23;;;;;;;2.28;1.20;;;21.90;68.80;;;;;;4842795;29;20500;-67
2022/09/03 09:44:48;;;;;;;1.40;1.20;;;22.00;68.90;;;;;;4826567;29;20045;-68
2022/09/03 09:47:23;;;;;;;2.88;1.23;;;22.00;68.30;;;;;;4826589;29;20460;-67
2022/09/03 09:49:54;;;;;;;3.45;1.15;;;22.10;67.60;;;;;;4842434;29;20626;-67
2022/09/03 09:52:24;;;;;;;3.35;1.05;;;22.20;67.40;;;;;;4842034;29;20515;-68
2022/09/03 09:54:53;;;;;;;3.10;1.23;;;22.20;66.60;;;;;;4853259;29;20050;-67
2022/09/03 09:57:24;;;;;;;2.58;1.20;;;22.20;66.40;;;;;;4846993;29;20061;-67
2022/09/03 10:00:05;;;;;;;3.13;1.20;;;22.30;66.30;;;;;;4826503;29;20062;-69
2022/09/03 10:02:34;;;;;;;1.90;1.07;;;22.50;65.60;;;;;;4842321;29;20110;-67
2022/09/03 10:05:25;;;;;;;2.20;1.00;;;22.50;65.40;;;;;;4842617;29;20460;-67
2022/09/03 10:07:59;;;;;;;6.38;1.50;;;22.60;64.30;;;;;;4842045;29;20080;-67
2022/09/03 10:10:27;;;;;;;2.35;1.05;;;22.70;64.80;;;;;;4846825;29;20045;-68
2022/09/03 10:13:08;;;;;;;1.65;1.02;;;22.80;64.20;;;;;;4860133;29;20049;-68
2022/09/03 10:15:45;;;;;;;2.83;1.20;;;22.90;63.80;;;;;;4860700;29;20125;-66
2022/09/03 10:18:40;;;;;;;4.45;1.15;;;23.00;62.40;;;;;;4853676;29;20049;-68
2022/09/03 10:21:45;;;;;;;5.85;1.20;;;23.10;62.80;;;;;;4851265;29;20057;-68
2022/09/03 10:24:14;;;;;;;3.15;1.10;;;23.20;61.70;;;;;;4810929;29;20084;-67
2022/09/03 10:26:44;;;;;;;2.15;1.10;;;23.20;61.10;;;;;;4845639;29;20057;-68
2022/09/03 10:29:14;;;;;;;3.35;1.10;;;23.30;60.70;;;;;;4856799;29;20058;-67
2022/09/03 10:32:03;;;;;;;4.28;1.10;;;23.30;61.00;;;;;;4859664;29;20053;-67
2022/09/03 10:34:58;;;;;;;4.30;1.05;;;23.40;59.10;;;;;;4860118;29;20061;-67
2022/09/03 10:37:37;;;;;;;2.83;1.10;;;23.50;59.30;;;;;;4853479;29;20064;-68
2022/09/03 10:40:33;;;;;;;3.20;1.10;;;23.60;59.30;;;;;;4860543;29;20053;-67
2022/09/03 10:43:16;;;;;;;2.30;1.20;;;23.70;59.60;;;;;;4852182;29;20062;-66
2022/09/03 10:46:14;;;;;;;1.85;1.10;;;23.70;59.30;;;;;;4850363;29;20060;-66
2022/09/03 10:48:51;;;;;;;1.95;1.15;;;23.80;56.90;;;;;;4865912;29;20057;-68
2022/09/03 10:51:28;;;;;;;1.27;1.02;;;23.80;57.80;;;;;;4866721;29;20065;-68
2022/09/03 10:54:23;;;;;;;3.70;0.93;;;23.90;58.40;;;;;;4859892;29;20045;-66
2022/09/03 10:57:15;;;;;;;2.88;1.20;;;24.00;57.30;;;;;;4859703;29;20057;-67
2022/09/03 11:00:08;;;;;;;2.17;1.05;;;24.00;55.70;;;;;;4871933;29;20127;-68
2022/09/03 11:03:01;;;;;;;2.95;1.17;;;23.90;56.60;;;;;;4862480;29;20054;-69
2022/09/03 11:05:38;;;;;;;3.33;1.20;;;24.00;55.90;;;;;;4855925;29;20057;-69
2022/09/03 11:08:24;;;;;;;1.77;1.00;;;24.00;56.30;;;;;;4859260;29;20136;-68
2022/09/03 11:11:18;;;;;;;1.90;1.02;;;24.10;55.60;;;;;;4843211;29;20379;-68
2022/09/03 11:13:53;;;;;;;1.42;1.10;;;24.10;55.70;;;;;;4857146;29;20140;-67
2022/09/03 11:16:34;;;;;;;3.05;1.10;;;24.30;55.80;;;;;;4842875;29;20092;-68
2022/09/03 11:19:04;;;;;;;1.52;1.20;;;24.40;55.60;;;;;;4861624;29;20060;-67
2022/09/03 11:21:33;;;;;;;4.90;1.13;;;24.50;54.60;;;;;;4858905;29;20103;-67
2022/09/03 11:24:20;;;;;;;2.83;1.17;;;24.40;54.50;;;;;;4861111;29;20247;-67
2022/09/03 11:26:55;;;;;;;1.70;1.05;;;24.40;53.70;;;;;;4871463;29;20052;-67
2022/09/03 11:29:38;;;;;;;2.80;1.17;;;24.40;53.70;;;;;;4852515;29;20049;-67
2022/09/03 11:32:28;;;;;;;2.60;1.20;;;24.30;54.00;;;;;;4852645;29;20128;-68
2022/09/03 11:34:54;;;;;;;2.25;1.13;;;24.30;53.70;;;;;;4855017;29;20113;-67
2022/09/03 11:37:24;;;;;;;3.25;1.38;;;24.40;53.60;;;;;;4876842;29;20056;-67
2022/09/03 11:40:09;;;;;;;4.32;1.10;;;24.50;53.70;;;;;;4874869;29;20069;-67
2022/09/03 11:42:40;;;;;;;3.00;1.00;;;24.50;52.60;;;;;;4853280;29;20057;-68
2022/09/03 11:45:32;;;;;;;1.58;1.15;;;24.50;53.20;;;;;;4870864;29;20541;-67
2022/09/03 11:47:58;;;;;;;3.30;1.20;;;24.50;52.30;;;;;;4811642;29;1035590;-66
2022/09/03 11:50:27;;;;;;;1.17;0.90;;;24.50;52.60;;;;;;4855311;29;20391;-67
2022/09/03 11:53:06;;;;;;;1.15;0.95;;;24.50;52.20;;;;;;4852716;29;20243;-67
2022/09/03 11:55:50;;;;;;;2.97;1.10;;;24.60;52.60;;;;;;4856185;29;20057;-66
2022/09/03 11:58:23;;;;;;;2.85;1.08;;;24.70;52.60;;;;;;4836304;29;20424;-67
2022/09/03 12:00:52;;;;;;;1.40;1.10;;;24.80;52.60;;;;;;4855507;29;20085;-68
2022/09/03 12:03:27;;;;;;;3.10;1.10;;;25.00;52.20;;;;;;4842072;29;20050;-67
2022/09/03 12:06:03;;;;;;;2.63;1.08;;;24.90;51.40;;;;;;4836296;29;20054;-67
2022/09/03 12:08:34;;;;;;;2.70;0.88;;;24.90;51.10;;;;;;4832427;29;20415;-68
2022/09/03 12:11:38;;;;;;;1.00;0.90;;;24.90;51.30;;;;;;4843416;29;20437;-67
2022/09/03 12:14:19;;;;;;;3.95;1.02;;;25.00;50.70;;;;;;4808110;29;20421;-66
2022/09/03 12:16:50;;;;;;;3.30;1.10;;;24.90;50.00;;;;;;4827874;29;20066;-67
2022/09/03 12:19:36;;;;;;;1.20;0.98;;;24.90;50.40;;;;;;4857544;29;20079;-68
2022/09/03 12:22:03;;;;;;;2.33;0.90;;;24.90;50.30;;;;;;4835244;29;20129;-68
2022/09/03 12:24:30;;;;;;;3.58;1.00;;;25.10;50.70;;;;;;4837460;29;20475;-69
2022/09/03 12:26:57;;;;;;;1.42;1.20;;;24.90;49.90;;;;;;4854083;29;20103;-67
2022/09/03 12:29:26;;;;;;;2.55;1.30;;;25.10;50.30;;;;;;4861134;29;20053;-65
2022/09/03 12:31:55;;;;;;;1.58;1.10;;;25.10;50.50;;;;;;4842195;29;20053;-67
2022/09/03 12:34:22;;;;;;;3.72;1.10;;;25.20;50.50;;;;;;4829214;29;20045;-66
2022/09/03 12:36:50;;;;;;;6.40;1.20;;;25.30;50.50;;;;;;4844420;29;20462;-68
2022/09/03 12:39:17;;;;;;;2.88;1.00;;;25.30;50.20;;;;;;4861830;29;20056;-69
2022/09/03 12:41:56;;;;;;;6.68;1.30;;;25.30;50.40;;;;;;4861309;29;20057;-68
2022/09/03 12:44:32;;;;;;;3.08;1.20;;;25.40;49.50;;;;;;4856570;29;20054;-67
2022/09/03 12:47:12;;;;;;;1.33;1.00;;;25.20;49.10;;;;;;4843384;29;20053;-67
2022/09/03 12:49:43;;;;;;;3.70;1.20;;;25.30;49.30;;;;;;4860845;29;20177;-66
2022/09/03 12:52:15;;;;;;;3.17;1.33;;;25.30;49.50;;;;;;4860017;29;20061;-66
2022/09/03 12:55:05;;;;;;;2.85;1.17;;;25.20;49.10;;;;;;4861071;29;20405;-67
2022/09/03 12:57:44;;;;;;;2.28;1.10;;;25.30;49.10;;;;;;4845139;29;20076;-65
2022/09/03 13:00:14;;;;;;;2.38;0.98;;;25.40;49.50;;;;;;4843075;29;20061;-66
2022/09/03 13:02:46;;;;;;;1.38;0.90;;;25.40;49.00;;;;;;4860573;29;20136;-67
2022/09/03 13:05:17;;;;;;;2.03;1.00;;;25.40;49.10;;;;;;4858364;29;20056;-66
2022/09/03 13:07:50;;;;;;;2.40;1.00;;;25.40;48.70;;;;;;4859701;29;20475;-66
2022/09/03 13:10:27;;;;;;;2.55;1.10;;;25.30;48.90;;;;;;4858718;29;20414;-66
2022/09/03 13:13:01;;;;;;;1.80;0.90;;;25.30;48.90;;;;;;4860575;29;20057;-66
2022/09/03 13:15:28;;;;;;;1.67;1.13;;;25.30;48.70;;;;;;4843486;29;20121;-65
2022/09/03 13:18:31;;;;;;;2.58;1.05;;;25.30;48.80;;;;;;4862613;29;20098;-66
2022/09/03 13:21:08;;;;;;;1.20;0.98;;;25.30;48.70;;;;;;4825230;29;20452;-65
2022/09/03 13:24:02;;;;;;;2.08;1.25;;;25.40;48.70;;;;;;4841311;29;20057;-65
2022/09/03 13:26:38;;;;;;;4.03;1.00;;;25.40;48.70;;;;;;4858446;29;20061;-67
2022/09/03 13:29:28;;;;;;;5.15;1.30;;;25.30;48.60;;;;;;4859052;29;20054;-66
2022/09/03 13:32:01;;;;;;;1.38;0.85;;;25.10;48.50;;;;;;4860672;29;20094;-66
2022/09/03 13:34:36;;;;;;;1.73;1.00;;;25.40;48.60;;;;;;4843258;29;20048;-66
2022/09/03 13:37:11;;;;;;;1.48;1.00;;;25.60;48.90;;;;;;4839980;29;20059;-66
2022/09/03 13:39:45;;;;;;;1.27;1.00;;;25.40;48.60;;;;;;4842203;29;20054;-66
2022/09/03 13:42:23;;;;;;;1.73;0.93;;;25.40;48.80;;;;;;4843936;29;20154;-66
2022/09/03 13:44:57;;;;;;;2.80;1.00;;;25.50;49.10;;;;;;4843052;29;20057;-67
2022/09/03 13:51:26;;;;;;;2.25;1.02;;;25.50;48.70;;;;;;4813566;29;20057;-67